createdAt,value
2022-11-19T00:01:14.404Z,87.93
2022-11-19T00:06:41.797Z,87.70
2022-11-19T00:12:25.760Z,88.46
2022-11-19T00:18:01.424Z,88.42
2022-11-19T00:23:48.719Z,88.44
2022-11-19T00:29:17.989Z,88.40
2022-11-19T00:34:47.515Z,88.58
2022-11-19T00:40:24.123Z,89.22
2022-11-19T00:45:51.590Z,89.54
2022-11-19T00:51:22.547Z,89.62
2022-11-19T00:56:52.235Z,89.67
2022-11-19T01:02:17.815Z,89.65
2022-11-19T01:08:17.229Z,90.31
2022-11-19T01:13:44.001Z,90.16
2022-11-19T01:19:09.949Z,89.65
2022-11-19T01:25:14.758Z,90.87
2022-11-19T01:30:54.138Z,90.08
2022-11-19T01:36:31.768Z,89.87
2022-11-19T01:42:02.994Z,90.74
2022-11-19T01:47:55.380Z,90.85
2022-11-19T01:53:23.373Z,90.74
2022-11-19T01:58:57.898Z,90.30
2022-11-19T02:04:32.736Z,90.97
2022-11-19T02:10:03.389Z,91.00
2022-11-19T02:16:19.956Z,91.30
2022-11-19T02:21:59.533Z,91.75
2022-11-19T02:28:22.079Z,91.47
2022-11-19T02:40:19.301Z,91.74
2022-11-19T02:46:08.371Z,92.02
2022-11-19T02:52:01.646Z,92.49
2022-11-19T02:57:33.565Z,92.44
2022-11-19T03:03:37.254Z,92.60
2022-11-19T03:09:15.584Z,92.71
2022-11-19T03:15:03.765Z,92.92
2022-11-19T03:20:53.369Z,92.69
2022-11-19T03:26:30.559Z,93.30
2022-11-19T03:32:04.270Z,93.18
2022-11-19T03:37:31.442Z,93.76
2022-11-19T03:43:13.982Z,93.82
2022-11-19T03:54:28.924Z,94.65
2022-11-19T04:00:13.335Z,94.70
2022-11-19T04:05:44.029Z,94.25
2022-11-19T04:11:14.928Z,95.00
2022-11-19T04:16:50.357Z,95.12
2022-11-19T04:22:30.131Z,94.70
2022-11-19T04:27:57.408Z,94.78
2022-11-19T04:33:24.968Z,95.17
2022-11-19T04:38:57.123Z,95.17
2022-11-19T04:44:35.713Z,95.01
2022-11-19T04:50:08.307Z,95.18
2022-11-19T04:55:34.381Z,94.72
2022-11-19T05:01:17.148Z,94.95
2022-11-19T05:06:55.601Z,95.16
2022-11-19T05:12:32.632Z,95.50
2022-11-19T05:18:00.142Z,95.31
2022-11-19T05:23:31.391Z,95.42
2022-11-19T05:29:09.906Z,95.45
2022-11-19T05:34:46.534Z,95.54
2022-11-19T05:46:33.884Z,95.97
2022-11-19T05:52:16.860Z,95.45
2022-11-19T05:57:56.695Z,95.73
2022-11-19T06:03:24.680Z,95.71
2022-11-19T06:09:08.577Z,95.69
2022-11-19T06:14:50.061Z,95.91
2022-11-19T06:20:27.324Z,95.78
2022-11-19T06:26:08.632Z,95.47
2022-11-19T06:37:39.671Z,95.82
2022-11-19T06:43:08.316Z,95.50
2022-11-19T06:48:45.684Z,95.53
2022-11-19T06:54:15.951Z,95.65
2022-11-19T06:59:47.532Z,95.61
2022-11-19T07:05:20.022Z,95.55
2022-11-19T07:10:47.067Z,95.28
2022-11-19T07:16:15.275Z,95.43
2022-11-19T07:21:56.616Z,95.41
2022-11-19T07:27:29.056Z,95.40
2022-11-19T07:33:03.226Z,96.03
2022-11-19T07:38:38.038Z,95.38
2022-11-19T07:44:06.758Z,95.79
2022-11-19T07:49:40.362Z,95.02
2022-11-19T07:55:18.630Z,94.96
2022-11-19T08:01:04.520Z,94.63
2022-11-19T08:06:35.007Z,94.83
2022-11-19T08:13:03.596Z,94.36
2022-11-19T08:18:31.470Z,94.05
2022-11-19T08:23:57.305Z,93.32
2022-11-19T08:29:29.483Z,92.86
2022-11-19T08:34:59.821Z,92.29
2022-11-19T08:40:50.278Z,91.10
2022-11-19T08:46:24.415Z,90.08
2022-11-19T08:51:48.521Z,90.50
2022-11-19T08:57:25.797Z,90.52
2022-11-19T09:02:51.357Z,89.45
2022-11-19T09:08:27.536Z,89.54
2022-11-19T09:13:52.023Z,89.15
2022-11-19T09:19:19.918Z,89.03
2022-11-19T09:25:01.555Z,87.90
2022-11-19T09:30:35.761Z,87.12
2022-11-19T09:36:15.114Z,85.69
2022-11-19T09:41:57.924Z,86.27
2022-11-19T09:47:32.139Z,84.25
2022-11-19T09:53:16.691Z,82.34
2022-11-19T09:58:49.801Z,83.11
2022-11-19T10:04:15.012Z,83.52
2022-11-19T10:10:13.088Z,80.96
2022-11-19T10:15:56.576Z,79.84
2022-11-19T10:21:34.610Z,78.88
2022-11-19T10:27:07.255Z,78.29
2022-11-19T10:32:39.386Z,78.23
2022-11-19T10:38:13.467Z,78.17
2022-11-19T10:43:48.905Z,77.87
2022-11-19T10:49:18.033Z,77.75
2022-11-19T10:54:51.505Z,77.53
2022-11-19T11:00:26.624Z,76.33
2022-11-19T11:06:05.612Z,75.70
2022-11-19T11:11:51.907Z,75.66
2022-11-19T11:17:29.721Z,75.21
2022-11-19T11:23:18.417Z,75.60
2022-11-19T11:28:59.972Z,76.34
2022-11-19T11:34:36.591Z,76.16
2022-11-19T11:40:05.302Z,76.74
2022-11-19T11:45:39.534Z,76.85
2022-11-19T11:51:12.544Z,76.98
2022-11-19T12:02:37.457Z,75.73
2022-11-19T12:08:27.013Z,73.31
2022-11-19T12:14:24.278Z,73.58
2022-11-19T12:20:20.611Z,74.10
2022-11-19T12:26:01.625Z,74.37
2022-11-19T12:31:44.184Z,74.36
2022-11-19T12:37:28.280Z,74.38
2022-11-19T12:43:14.443Z,74.33
2022-11-19T12:49:02.432Z,74.03
2022-11-19T12:54:43.009Z,72.48
2022-11-19T13:00:28.214Z,74.16
2022-11-19T13:05:58.833Z,73.97
2022-11-19T13:11:28.979Z,73.46
2022-11-19T13:17:21.399Z,74.49
2022-11-19T13:23:06.396Z,75.36
2022-11-19T13:28:40.589Z,74.94
2022-11-19T13:34:22.831Z,74.81
2022-11-19T13:39:52.730Z,75.24
2022-11-19T13:45:24.857Z,74.55
2022-11-19T13:50:53.356Z,75.07
2022-11-19T13:56:29.873Z,75.46
2022-11-19T14:02:04.950Z,75.45
2022-11-19T14:08:17.674Z,73.49
2022-11-19T14:14:01.144Z,74.32
2022-11-19T14:26:10.957Z,74.02
2022-11-19T14:31:45.715Z,74.61
2022-11-19T14:37:24.464Z,74.54
2022-11-19T14:43:40.012Z,74.14
2022-11-19T14:55:23.592Z,75.18
2022-11-19T15:01:20.662Z,75.30
2022-11-19T15:07:00.729Z,75.63
2022-11-19T15:12:36.236Z,75.03
2022-11-19T15:18:13.905Z,75.10
2022-11-19T15:24:00.815Z,75.40
2022-11-19T15:30:03.858Z,75.54
2022-11-19T15:35:48.897Z,76.38
2022-11-19T15:41:32.231Z,76.37
2022-11-19T15:47:05.367Z,76.60
2022-11-19T15:52:43.182Z,77.39
2022-11-19T15:58:18.520Z,77.18
2022-11-19T16:03:45.866Z,78.21
2022-11-19T16:09:10.102Z,78.05
2022-11-19T16:15:22.266Z,78.13
2022-11-19T16:20:52.271Z,78.23
2022-11-19T16:26:17.187Z,78.36
2022-11-19T16:31:40.418Z,78.54
2022-11-19T16:37:15.788Z,78.46
2022-11-19T16:42:46.329Z,79.12
2022-11-19T16:48:55.607Z,80.06
2022-11-19T16:55:01.210Z,80.50
2022-11-19T17:00:32.139Z,80.94
2022-11-19T17:06:12.107Z,81.22
2022-11-19T17:12:25.450Z,81.20
2022-11-19T17:17:55.081Z,81.93
2022-11-19T17:23:33.800Z,81.77
2022-11-19T17:29:32.404Z,82.07
2022-11-19T17:35:19.947Z,81.81
2022-11-19T17:41:08.765Z,81.57
2022-11-19T17:46:48.342Z,81.88
2022-11-19T17:52:31.515Z,82.10
2022-11-19T17:58:10.694Z,82.73
2022-11-19T18:03:45.025Z,82.75
2022-11-19T18:09:10.076Z,83.60
2022-11-19T18:14:51.598Z,83.71
2022-11-19T18:20:18.587Z,84.11
2022-11-19T18:25:43.977Z,84.21
2022-11-19T18:31:28.410Z,83.62
2022-11-19T18:37:02.578Z,83.85
2022-11-19T18:42:35.385Z,84.41
2022-11-19T18:48:01.699Z,84.38
2022-11-19T18:53:44.077Z,85.13
2022-11-19T18:59:19.264Z,85.29
2022-11-19T19:04:50.983Z,85.41
2022-11-19T19:10:23.318Z,85.52
2022-11-19T19:16:14.436Z,85.17
2022-11-19T19:21:50.791Z,85.87
2022-11-19T19:27:33.833Z,85.15
2022-11-19T19:33:00.325Z,85.03
2022-11-19T19:44:33.257Z,84.55
2022-11-19T19:49:58.385Z,84.75
2022-11-19T19:55:39.899Z,84.53
2022-11-19T20:01:17.946Z,84.70
2022-11-19T20:07:03.541Z,84.85
2022-11-19T20:12:50.981Z,85.51
2022-11-19T20:24:11.425Z,86.49
2022-11-19T20:30:00.102Z,85.89
2022-11-19T20:35:36.360Z,86.25
2022-11-19T20:41:18.692Z,87.04
2022-11-19T20:46:47.826Z,86.79
2022-11-19T20:52:26.351Z,86.38
2022-11-19T20:58:14.400Z,87.51
2022-11-19T21:03:52.859Z,87.65
2022-11-19T21:09:26.305Z,88.79
2022-11-19T21:15:05.526Z,88.68
2022-11-19T21:20:31.553Z,87.91
2022-11-19T21:26:02.229Z,88.61
2022-11-19T21:31:53.716Z,88.19
2022-11-19T21:37:34.485Z,88.98
2022-11-19T21:43:06.126Z,88.21
2022-11-19T21:48:33.796Z,89.06
2022-11-19T21:54:04.308Z,88.86
2022-11-19T21:59:36.466Z,88.71
2022-11-19T22:05:11.637Z,89.12
2022-11-19T22:10:45.357Z,88.80
2022-11-19T22:16:18.878Z,88.95
2022-11-19T22:21:59.674Z,89.34
2022-11-19T22:27:23.984Z,89.62
2022-11-19T22:32:54.112Z,88.98
2022-11-19T22:38:52.351Z,89.71
2022-11-19T22:44:25.602Z,89.76
2022-11-19T22:49:57.531Z,89.66
2022-11-19T22:55:26.374Z,88.74
2022-11-19T23:01:16.000Z,89.24
2022-11-19T23:07:08.333Z,89.32
2022-11-19T23:13:02.920Z,89.72
2022-11-19T23:18:31.658Z,89.39
2022-11-19T23:24:23.432Z,89.89
2022-11-19T23:29:52.984Z,89.68
2022-11-19T23:35:22.356Z,89.70
2022-11-19T23:40:48.807Z,89.53
2022-11-19T23:46:37.108Z,90.07
2022-11-19T23:52:02.562Z,90.91
2022-11-19T23:57:27.458Z,91.15
